createdAt,value
2023-03-31T00:00:42.408Z,100.00
2023-03-31T00:03:09.475Z,100.00
2023-03-31T00:05:36.719Z,100.00
2023-03-31T00:08:03.981Z,100.00
2023-03-31T00:10:34.147Z,100.00
2023-03-31T00:13:01.614Z,100.00
2023-03-31T00:15:29.090Z,100.00
2023-03-31T00:17:57.301Z,100.00
2023-03-31T00:20:24.133Z,100.00
2023-03-31T00:22:50.895Z,100.00
2023-03-31T00:25:17.639Z,100.00
2023-03-31T00:27:46.380Z,100.00
2023-03-31T00:30:14.455Z,100.00
2023-03-31T00:32:41.549Z,100.00
2023-03-31T00:35:08.979Z,100.00
2023-03-31T00:37:36.142Z,100.00
2023-03-31T00:40:04.252Z,100.00
2023-03-31T00:42:30.992Z,100.00
2023-03-31T00:45:28.419Z,100.00
2023-03-31T00:48:01.145Z,100.00
2023-03-31T00:50:32.100Z,100.00
2023-03-31T00:53:02.003Z,100.00
2023-03-31T00:55:34.750Z,100.00
2023-03-31T00:58:02.554Z,100.00
2023-03-31T01:00:30.787Z,100.00
2023-03-31T01:03:01.425Z,100.00
2023-03-31T01:05:32.928Z,100.00
2023-03-31T01:08:01.030Z,100.00
2023-03-31T01:10:29.721Z,100.00
2023-03-31T01:12:57.829Z,100.00
2023-03-31T01:15:24.662Z,100.00
2023-03-31T01:17:53.902Z,100.00
2023-03-31T01:20:32.006Z,100.00
2023-03-31T01:23:25.266Z,100.00
2023-03-31T01:26:25.254Z,100.00
2023-03-31T01:28:58.684Z,100.00
2023-03-31T01:32:15.761Z,100.00
2023-03-31T01:35:09.605Z,100.00
2023-03-31T01:38:15.380Z,100.00
2023-03-31T01:41:03.934Z,100.00
2023-03-31T01:43:37.643Z,100.00
2023-03-31T01:46:16.176Z,100.00
2023-03-31T01:48:51.385Z,100.00
2023-03-31T01:51:22.206Z,100.00
2023-03-31T01:53:54.626Z,100.00
2023-03-31T01:56:30.534Z,100.00
2023-03-31T01:59:01.919Z,100.00
2023-03-31T02:01:36.276Z,100.00
2023-03-31T02:04:11.255Z,100.00
2023-03-31T02:06:43.108Z,100.00
2023-03-31T02:09:14.555Z,100.00
2023-03-31T02:11:44.614Z,100.00
2023-03-31T02:14:14.984Z,100.00
2023-03-31T02:16:44.794Z,100.00
2023-03-31T02:19:12.073Z,100.00
2023-03-31T02:21:40.605Z,100.00
2023-03-31T02:24:10.944Z,100.00
2023-03-31T02:26:42.401Z,100.00
2023-03-31T02:29:10.761Z,100.00
2023-03-31T02:31:47.593Z,100.00
2023-03-31T02:34:14.784Z,100.00
2023-03-31T02:36:42.360Z,100.00
2023-03-31T02:39:11.897Z,100.00
2023-03-31T02:41:38.758Z,100.00
2023-03-31T02:44:05.749Z,100.00
2023-03-31T02:46:34.123Z,100.00
2023-03-31T02:49:04.240Z,100.00
2023-03-31T02:52:02.009Z,100.00
2023-03-31T02:54:48.841Z,100.00
2023-03-31T02:57:49.133Z,100.00
2023-03-31T03:00:24.105Z,100.00
2023-03-31T03:03:11.607Z,100.00
2023-03-31T03:05:45.970Z,100.00
2023-03-31T03:08:21.485Z,100.00
2023-03-31T03:11:01.787Z,100.00
2023-03-31T03:13:34.957Z,100.00
2023-03-31T03:16:05.854Z,100.00
2023-03-31T03:18:34.500Z,100.00
2023-03-31T03:21:01.266Z,100.00
2023-03-31T03:23:28.061Z,100.00
2023-03-31T03:25:55.140Z,100.00
2023-03-31T03:28:24.925Z,100.00
2023-03-31T03:30:51.666Z,100.00
2023-03-31T03:33:18.491Z,100.00
2023-03-31T03:35:46.708Z,100.00
2023-03-31T03:38:13.541Z,100.00
2023-03-31T03:40:40.331Z,100.00
2023-03-31T03:43:07.101Z,100.00
2023-03-31T03:45:33.900Z,100.00
2023-03-31T03:48:00.795Z,100.00
2023-03-31T03:50:27.713Z,100.00
2023-03-31T03:52:55.851Z,100.00
2023-03-31T03:55:22.583Z,100.00
2023-03-31T03:57:49.438Z,100.00
2023-03-31T04:00:16.460Z,100.00
2023-03-31T04:02:43.356Z,100.00
2023-03-31T04:05:10.251Z,100.00
2023-03-31T04:07:36.981Z,100.00
2023-03-31T04:10:06.124Z,100.00
2023-03-31T04:12:34.264Z,100.00
2023-03-31T04:15:01.079Z,100.00
2023-03-31T04:17:27.866Z,100.00
2023-03-31T04:19:54.641Z,100.00
2023-03-31T04:22:21.348Z,100.00
2023-03-31T04:24:48.124Z,100.00
2023-03-31T04:27:16.324Z,100.00
2023-03-31T04:29:43.128Z,100.00
2023-03-31T04:32:09.983Z,100.00
2023-03-31T04:34:36.827Z,100.00
2023-03-31T04:37:03.888Z,100.00
2023-03-31T04:39:31.104Z,100.00
2023-03-31T04:41:58.608Z,100.00
2023-03-31T04:44:27.342Z,100.00
2023-03-31T04:46:54.615Z,100.00
2023-03-31T04:49:21.537Z,100.00
2023-03-31T04:51:48.322Z,100.00
2023-03-31T04:54:15.263Z,100.00
2023-03-31T04:56:42.253Z,100.00
2023-03-31T04:59:09.126Z,100.00
2023-03-31T05:01:37.305Z,100.00
2023-03-31T05:04:04.782Z,100.00
2023-03-31T05:06:31.964Z,100.00
2023-03-31T05:08:58.712Z,100.00
2023-03-31T05:11:25.593Z,100.00
2023-03-31T05:13:52.378Z,100.00
2023-03-31T05:16:19.216Z,100.00
2023-03-31T05:18:47.607Z,100.00
2023-03-31T05:21:16.425Z,100.00
2023-03-31T05:23:44.204Z,100.00
2023-03-31T05:26:11.504Z,100.00
2023-03-31T05:28:39.253Z,100.00
2023-03-31T05:31:08.157Z,100.00
2023-03-31T05:33:35.342Z,100.00
2023-03-31T05:36:03.784Z,100.00
2023-03-31T05:38:31.447Z,100.00
2023-03-31T05:40:58.304Z,100.00
2023-03-31T05:43:25.220Z,100.00
2023-03-31T05:45:52.379Z,100.00
2023-03-31T05:48:19.257Z,100.00
2023-03-31T05:50:46.042Z,100.00
2023-03-31T05:53:14.477Z,100.00
2023-03-31T05:55:41.341Z,100.00
2023-03-31T05:58:08.107Z,100.00
2023-03-31T06:00:35.898Z,100.00
2023-03-31T06:03:03.170Z,100.00
2023-03-31T06:05:30.453Z,100.00
2023-03-31T06:07:57.271Z,100.00
2023-03-31T06:10:25.415Z,100.00
2023-03-31T06:12:52.229Z,100.00
2023-03-31T06:15:19.173Z,100.00
2023-03-31T06:17:46.042Z,100.00
2023-03-31T06:20:24.647Z,100.00
2023-03-31T06:22:54.533Z,100.00
2023-03-31T06:25:21.312Z,100.00
2023-03-31T06:27:49.451Z,100.00
2023-03-31T06:30:16.522Z,100.00
2023-03-31T06:32:43.443Z,100.00
2023-03-31T06:35:10.226Z,100.00
2023-03-31T06:37:36.958Z,100.00
2023-03-31T06:40:04.149Z,100.00
2023-03-31T06:42:30.966Z,100.00
2023-03-31T06:45:00.045Z,100.00
2023-03-31T06:47:26.940Z,100.00
2023-03-31T06:49:54.028Z,100.00
2023-03-31T06:52:21.077Z,100.00
2023-03-31T06:54:47.918Z,100.00
2023-03-31T06:57:16.792Z,100.00
2023-03-31T06:59:43.855Z,100.00
2023-03-31T07:02:12.406Z,100.00
2023-03-31T07:04:39.355Z,100.00
2023-03-31T07:07:06.196Z,100.00
2023-03-31T07:09:32.945Z,100.00
2023-03-31T07:12:00.122Z,100.00
2023-03-31T07:14:27.197Z,100.00
2023-03-31T07:16:54.540Z,100.00
2023-03-31T07:19:22.925Z,100.00
2023-03-31T07:21:50.260Z,100.00
2023-03-31T07:24:17.613Z,100.00
2023-03-31T07:26:44.615Z,100.00
2023-03-31T07:29:11.449Z,100.00
2023-03-31T07:31:38.355Z,100.00
2023-03-31T07:34:05.674Z,100.00
2023-03-31T07:36:34.012Z,100.00
2023-03-31T07:39:00.898Z,100.00
2023-03-31T07:41:27.726Z,100.00
2023-03-31T07:43:54.711Z,100.00
2023-03-31T07:46:23.678Z,100.00
2023-03-31T07:48:51.857Z,100.00
2023-03-31T07:51:21.299Z,100.00
2023-03-31T07:53:49.834Z,100.00
2023-03-31T07:56:16.951Z,100.00
2023-03-31T07:58:43.891Z,100.00
2023-03-31T08:01:13.152Z,100.00
2023-03-31T08:03:40.157Z,100.00
2023-03-31T08:06:07.356Z,100.00
2023-03-31T08:08:34.699Z,100.00
2023-03-31T08:11:02.901Z,100.00
2023-03-31T08:13:30.095Z,100.00
2023-03-31T08:15:57.032Z,100.00
2023-03-31T08:18:23.951Z,100.00
2023-03-31T08:20:50.930Z,100.00
2023-03-31T08:23:18.085Z,100.00
2023-03-31T08:25:44.957Z,100.00
2023-03-31T08:28:13.482Z,100.00
2023-03-31T08:30:40.680Z,100.00
2023-03-31T08:33:07.995Z,100.00
2023-03-31T08:35:35.633Z,100.00
2023-03-31T08:38:02.453Z,100.00
2023-03-31T08:40:30.996Z,100.00
2023-03-31T08:43:02.383Z,100.00
2023-03-31T08:45:34.519Z,100.00
2023-03-31T08:48:07.358Z,100.00
2023-03-31T08:50:40.314Z,100.00
2023-03-31T08:53:13.806Z,100.00
2023-03-31T08:55:48.880Z,100.00
2023-03-31T08:58:29.461Z,100.00
2023-03-31T09:01:03.861Z,100.00
2023-03-31T09:03:40.892Z,100.00
2023-03-31T09:06:13.609Z,100.00
2023-03-31T09:08:42.326Z,100.00
2023-03-31T09:11:14.243Z,100.00
2023-03-31T09:14:11.708Z,100.00
2023-03-31T09:16:48.479Z,100.00
2023-03-31T09:19:20.665Z,100.00
2023-03-31T09:21:51.265Z,100.00
2023-03-31T09:24:21.413Z,100.00
2023-03-31T09:26:53.320Z,100.00
2023-03-31T09:29:24.210Z,100.00
2023-03-31T09:31:52.938Z,100.00
2023-03-31T09:34:25.299Z,98.33
2023-03-31T09:36:52.139Z,100.00
2023-03-31T09:39:18.888Z,100.00
2023-03-31T09:41:48.825Z,100.00
2023-03-31T09:44:24.726Z,99.97
2023-03-31T09:46:56.092Z,99.58
2023-03-31T09:49:26.409Z,100.00
2023-03-31T09:52:02.276Z,100.00
2023-03-31T09:54:36.098Z,99.63
2023-03-31T09:57:12.600Z,99.36
2023-03-31T09:59:39.481Z,100.00
2023-03-31T10:02:35.165Z,99.50
2023-03-31T10:05:03.339Z,100.00
2023-03-31T10:07:30.709Z,100.00
2023-03-31T10:09:57.604Z,96.50
2023-03-31T10:12:28.292Z,100.00
2023-03-31T10:15:03.955Z,97.77
2023-03-31T10:17:46.964Z,98.16
2023-03-31T10:20:31.585Z,98.69
2023-03-31T10:23:03.663Z,99.74
2023-03-31T10:25:33.008Z,99.76
2023-03-31T10:28:02.132Z,97.98
2023-03-31T10:30:36.495Z,96.13
2023-03-31T10:33:19.070Z,96.59
2023-03-31T10:35:49.517Z,93.48
2023-03-31T10:38:23.892Z,97.29
2023-03-31T10:40:53.075Z,96.35
2023-03-31T10:43:24.634Z,95.08
2023-03-31T10:45:52.394Z,94.70
2023-03-31T10:48:25.411Z,97.67
2023-03-31T10:50:52.313Z,95.85
2023-03-31T10:53:19.606Z,91.25
2023-03-31T10:55:56.057Z,95.45
2023-03-31T10:58:36.273Z,94.91
2023-03-31T11:01:14.803Z,94.79
2023-03-31T11:03:57.948Z,96.57
2023-03-31T11:06:32.923Z,85.96
2023-03-31T11:09:14.107Z,90.54
2023-03-31T11:11:56.550Z,92.10
2023-03-31T11:14:40.342Z,90.90
2023-03-31T11:17:22.997Z,87.65
2023-03-31T11:20:00.289Z,90.33
2023-03-31T11:22:34.860Z,87.73
2023-03-31T11:25:14.673Z,89.47
2023-03-31T11:27:55.516Z,88.09
2023-03-31T11:30:28.762Z,86.48
2023-03-31T11:33:16.795Z,82.63
2023-03-31T11:35:56.602Z,78.93
2023-03-31T11:38:44.096Z,82.93
2023-03-31T11:41:15.573Z,84.50
2023-03-31T11:43:46.826Z,82.59
2023-03-31T11:46:17.440Z,85.38
2023-03-31T11:48:48.551Z,85.62
2023-03-31T11:51:21.895Z,86.16
2023-03-31T11:53:55.507Z,84.51
2023-03-31T11:56:27.333Z,88.46
2023-03-31T11:58:57.764Z,88.30
2023-03-31T12:01:30.224Z,88.28
2023-03-31T12:04:04.028Z,84.55
2023-03-31T12:06:35.238Z,85.36
2023-03-31T12:09:13.036Z,83.78
2023-03-31T12:11:46.449Z,82.97
2023-03-31T12:14:24.494Z,82.82
2023-03-31T12:16:54.447Z,83.93
2023-03-31T12:19:25.527Z,79.49
2023-03-31T12:21:57.040Z,79.38
2023-03-31T12:24:23.828Z,83.13
2023-03-31T12:26:59.729Z,82.35
2023-03-31T12:29:30.810Z,82.70
2023-03-31T12:32:01.792Z,81.45
2023-03-31T12:34:31.381Z,80.69
2023-03-31T12:37:08.973Z,78.32
2023-03-31T12:39:44.965Z,76.56
2023-03-31T12:42:42.640Z,74.82
2023-03-31T12:45:18.651Z,78.32
2023-03-31T12:48:18.515Z,82.02
2023-03-31T12:51:02.573Z,80.06
2023-03-31T12:53:39.001Z,77.76
2023-03-31T12:56:06.236Z,80.02
2023-03-31T12:58:42.163Z,80.16
2023-03-31T13:01:12.497Z,79.92
2023-03-31T13:03:48.629Z,75.24
2023-03-31T13:06:51.139Z,79.94
2023-03-31T13:09:42.357Z,76.86
2023-03-31T13:12:14.674Z,79.94
2023-03-31T13:14:44.377Z,80.91
2023-03-31T13:17:22.762Z,83.58
2023-03-31T13:19:50.469Z,84.44
2023-03-31T13:22:35.563Z,86.20
2023-03-31T13:25:34.463Z,88.60
2023-03-31T13:28:11.071Z,88.48
2023-03-31T13:30:51.790Z,83.37
2023-03-31T13:33:26.953Z,84.16
2023-03-31T13:36:05.390Z,83.88
2023-03-31T13:38:45.779Z,79.77
2023-03-31T13:41:29.148Z,83.69
2023-03-31T13:44:10.374Z,84.13
2023-03-31T13:46:52.396Z,84.59
2023-03-31T13:49:54.465Z,85.25
2023-03-31T13:52:35.449Z,81.13
2023-03-31T13:55:48.404Z,79.19
2023-03-31T13:58:53.378Z,83.79
2023-03-31T14:01:40.323Z,87.30
2023-03-31T14:04:22.767Z,86.10
2023-03-31T14:06:55.081Z,85.16
2023-03-31T14:09:25.772Z,83.94
2023-03-31T14:11:52.565Z,85.38
2023-03-31T14:14:20.699Z,83.11
2023-03-31T14:16:50.891Z,83.52
2023-03-31T14:19:46.161Z,85.16
2023-03-31T14:22:23.093Z,83.98
2023-03-31T14:24:55.282Z,80.15
2023-03-31T14:27:45.740Z,82.99
2023-03-31T14:30:23.646Z,82.49
2023-03-31T14:33:15.501Z,81.67
2023-03-31T14:35:47.384Z,78.34
2023-03-31T14:38:18.842Z,80.19
2023-03-31T14:40:47.770Z,83.50
2023-03-31T14:43:21.219Z,81.37
2023-03-31T14:45:57.724Z,80.90
2023-03-31T14:48:24.549Z,83.30
2023-03-31T14:50:57.560Z,82.43
2023-03-31T14:53:25.771Z,80.62
2023-03-31T14:55:59.646Z,81.58
2023-03-31T14:58:48.687Z,78.74
2023-03-31T15:01:38.507Z,80.49
2023-03-31T15:04:41.524Z,83.71
2023-03-31T15:07:10.193Z,86.43
2023-03-31T15:09:38.165Z,85.98
2023-03-31T15:12:11.427Z,89.62
2023-03-31T15:14:45.552Z,89.63
2023-03-31T15:17:20.338Z,87.78
2023-03-31T15:19:54.378Z,88.26
2023-03-31T15:22:22.729Z,87.24
2023-03-31T15:24:49.494Z,86.73
2023-03-31T15:27:35.811Z,86.34
2023-03-31T15:30:08.464Z,89.82
2023-03-31T15:32:39.343Z,90.79
2023-03-31T15:37:47.955Z,85.94
2023-03-31T15:40:20.645Z,90.50
2023-03-31T15:43:01.690Z,91.59
2023-03-31T15:45:49.406Z,88.72
2023-03-31T15:48:30.040Z,91.57
2023-03-31T15:51:01.066Z,85.60
2023-03-31T15:53:35.707Z,89.59
2023-03-31T15:56:02.880Z,90.32
2023-03-31T15:58:54.761Z,88.47
2023-03-31T16:01:22.718Z,88.13
2023-03-31T16:03:52.949Z,90.89
2023-03-31T16:06:24.064Z,88.70
2023-03-31T16:09:00.164Z,93.57
2023-03-31T16:11:33.342Z,96.85
2023-03-31T16:14:06.143Z,100.00
2023-03-31T16:16:33.893Z,100.00
2023-03-31T16:19:05.515Z,99.54
2023-03-31T16:21:37.957Z,100.00
2023-03-31T16:24:05.375Z,100.00
2023-03-31T16:26:32.827Z,100.00
2023-03-31T16:29:00.587Z,100.00
2023-03-31T16:31:29.975Z,100.00
2023-03-31T16:33:59.131Z,100.00
2023-03-31T16:36:27.392Z,100.00
2023-03-31T16:38:54.500Z,100.00
2023-03-31T16:41:21.806Z,100.00
2023-03-31T16:43:48.649Z,100.00
2023-03-31T16:46:15.535Z,100.00
2023-03-31T16:48:42.436Z,100.00
2023-03-31T16:51:09.196Z,100.00
2023-03-31T16:53:37.852Z,100.00
2023-03-31T16:56:05.607Z,100.00
2023-03-31T16:58:32.402Z,100.00
2023-03-31T17:00:59.584Z,100.00
2023-03-31T17:03:27.068Z,100.00
2023-03-31T17:05:57.652Z,100.00
2023-03-31T17:08:26.728Z,100.00
2023-03-31T17:10:56.544Z,100.00
2023-03-31T17:13:23.402Z,100.00
2023-03-31T17:15:52.117Z,100.00
2023-03-31T17:18:22.835Z,100.00
2023-03-31T17:20:49.656Z,100.00
2023-03-31T17:23:16.458Z,100.00
2023-03-31T17:25:47.263Z,100.00
2023-03-31T17:28:15.801Z,100.00
2023-03-31T17:30:43.044Z,100.00
2023-03-31T17:33:10.537Z,100.00
2023-03-31T17:35:37.580Z,100.00
2023-03-31T17:38:04.414Z,100.00
2023-03-31T17:40:31.185Z,100.00
2023-03-31T17:42:57.982Z,100.00
2023-03-31T17:45:26.195Z,100.00
2023-03-31T17:47:53.048Z,100.00
2023-03-31T17:50:20.069Z,100.00
2023-03-31T17:52:47.715Z,100.00
2023-03-31T17:55:14.663Z,100.00
2023-03-31T17:57:41.522Z,100.00
2023-03-31T18:00:09.917Z,100.00
2023-03-31T18:02:38.538Z,100.00
2023-03-31T18:05:06.441Z,100.00
2023-03-31T18:07:33.512Z,100.00
2023-03-31T18:10:00.872Z,100.00
2023-03-31T18:12:28.727Z,100.00
2023-03-31T18:14:55.672Z,100.00
2023-03-31T18:17:23.198Z,100.00
2023-03-31T18:19:51.428Z,100.00
2023-03-31T18:22:18.249Z,100.00
2023-03-31T18:24:45.281Z,100.00
2023-03-31T18:27:12.105Z,100.00
2023-03-31T18:29:39.023Z,100.00
2023-03-31T18:32:05.908Z,100.00
2023-03-31T18:34:32.737Z,100.00
2023-03-31T18:37:00.879Z,100.00
2023-03-31T18:39:27.617Z,100.00
2023-03-31T18:41:54.432Z,100.00
2023-03-31T18:44:21.640Z,100.00
2023-03-31T18:46:48.479Z,100.00
2023-03-31T18:49:15.284Z,100.00
2023-03-31T18:51:42.113Z,100.00
2023-03-31T18:54:10.306Z,100.00
2023-03-31T18:56:37.192Z,100.00
2023-03-31T18:59:04.129Z,100.00
2023-03-31T19:01:31.020Z,100.00
2023-03-31T19:03:58.008Z,100.00
2023-03-31T19:06:24.998Z,100.00
2023-03-31T19:08:51.823Z,100.00
2023-03-31T19:11:22.913Z,100.00
2023-03-31T19:13:49.747Z,100.00
2023-03-31T19:16:16.567Z,100.00
2023-03-31T19:18:43.489Z,100.00
2023-03-31T19:21:10.777Z,100.00
2023-03-31T19:23:37.653Z,100.00
2023-03-31T19:26:05.532Z,100.00
2023-03-31T19:28:33.654Z,100.00
2023-03-31T19:31:04.028Z,100.00
2023-03-31T19:33:30.835Z,100.00
2023-03-31T19:35:57.696Z,100.00
2023-03-31T19:38:24.883Z,100.00
2023-03-31T19:40:51.622Z,100.00
2023-03-31T19:43:20.242Z,100.00
2023-03-31T19:45:49.314Z,100.00
2023-03-31T19:48:16.526Z,100.00
2023-03-31T19:50:46.509Z,100.00
2023-03-31T19:53:13.329Z,100.00
2023-03-31T19:55:40.180Z,100.00
2023-03-31T19:58:06.995Z,100.00
2023-03-31T20:00:33.816Z,100.00
2023-03-31T20:03:02.140Z,100.00
2023-03-31T20:05:31.317Z,100.00
2023-03-31T20:07:58.389Z,100.00
2023-03-31T20:10:25.202Z,100.00
2023-03-31T20:12:51.941Z,100.00
2023-03-31T20:15:18.864Z,100.00
2023-03-31T20:17:45.668Z,100.00
2023-03-31T20:20:13.878Z,100.00
2023-03-31T20:22:40.651Z,100.00
2023-03-31T20:25:08.126Z,100.00
2023-03-31T20:27:34.911Z,100.00
2023-03-31T20:30:01.765Z,100.00
2023-03-31T20:32:28.672Z,100.00
2023-03-31T20:34:55.472Z,100.00
2023-03-31T20:37:23.753Z,100.00
2023-03-31T20:39:50.593Z,100.00
2023-03-31T20:42:17.452Z,100.00
2023-03-31T20:44:44.252Z,100.00
2023-03-31T20:47:10.979Z,100.00
2023-03-31T20:49:37.730Z,100.00
2023-03-31T20:52:04.753Z,100.00
2023-03-31T20:54:32.964Z,100.00
2023-03-31T20:56:59.706Z,100.00
2023-03-31T20:59:26.447Z,100.00
2023-03-31T21:01:53.198Z,100.00
2023-03-31T21:04:20.065Z,100.00
2023-03-31T21:06:47.489Z,100.00
2023-03-31T21:09:15.819Z,100.00
2023-03-31T21:11:44.226Z,100.00
2023-03-31T21:14:13.888Z,100.00
2023-03-31T21:16:40.690Z,100.00
2023-03-31T21:19:07.467Z,100.00
2023-03-31T21:21:37.209Z,100.00
2023-03-31T21:24:04.286Z,100.00
2023-03-31T21:26:31.087Z,100.00
2023-03-31T21:28:59.244Z,100.00
2023-03-31T21:31:26.213Z,100.00
2023-03-31T21:33:53.640Z,100.00
2023-03-31T21:36:22.045Z,100.00
2023-03-31T21:38:49.224Z,100.00
2023-03-31T21:41:18.438Z,100.00
2023-03-31T21:43:45.570Z,100.00
2023-03-31T21:46:15.680Z,100.00
2023-03-31T21:48:42.580Z,100.00
2023-03-31T21:51:09.459Z,100.00
2023-03-31T21:53:36.218Z,100.00
2023-03-31T21:56:03.440Z,100.00
2023-03-31T21:58:30.421Z,100.00
2023-03-31T22:00:58.306Z,100.00
2023-03-31T22:03:28.695Z,100.00
2023-03-31T22:05:55.826Z,100.00
2023-03-31T22:08:22.937Z,100.00
2023-03-31T22:10:50.106Z,100.00
2023-03-31T22:13:16.842Z,100.00
2023-03-31T22:15:43.890Z,100.00
2023-03-31T22:18:10.711Z,100.00
2023-03-31T22:20:39.225Z,100.00
2023-03-31T22:23:07.555Z,100.00
2023-03-31T22:25:34.843Z,100.00
2023-03-31T22:28:03.045Z,100.00
2023-03-31T22:30:30.926Z,100.00
2023-03-31T22:32:57.934Z,100.00
2023-03-31T22:35:24.740Z,100.00
2023-03-31T22:37:53.391Z,100.00
2023-03-31T22:40:20.102Z,100.00
2023-03-31T22:42:46.902Z,100.00
2023-03-31T22:45:13.623Z,100.00
2023-03-31T22:47:40.446Z,100.00
2023-03-31T22:50:07.953Z,100.00
2023-03-31T22:52:34.625Z,100.00
2023-03-31T22:55:03.083Z,100.00
2023-03-31T22:57:30.389Z,100.00
2023-03-31T22:59:57.217Z,100.00
2023-03-31T23:02:24.003Z,100.00
2023-03-31T23:04:50.783Z,100.00
2023-03-31T23:07:17.563Z,100.00
2023-03-31T23:09:44.199Z,100.00
2023-03-31T23:12:12.278Z,100.00
2023-03-31T23:14:39.050Z,100.00
2023-03-31T23:17:05.739Z,100.00
2023-03-31T23:19:32.627Z,100.00
2023-03-31T23:21:59.347Z,100.00
2023-03-31T23:24:26.038Z,100.00
2023-03-31T23:26:52.839Z,100.00
2023-03-31T23:29:20.969Z,100.00
2023-03-31T23:31:47.741Z,100.00
2023-03-31T23:34:14.442Z,100.00
2023-03-31T23:36:41.221Z,100.00
2023-03-31T23:39:08.019Z,100.00
2023-03-31T23:41:34.842Z,100.00
2023-03-31T23:44:01.788Z,100.00
2023-03-31T23:46:30.021Z,100.00
2023-03-31T23:48:57.162Z,100.00
2023-03-31T23:51:23.942Z,100.00
2023-03-31T23:53:50.727Z,100.00
2023-03-31T23:56:18.014Z,100.00
2023-03-31T23:58:47.314Z,100.00
